sensor_id;sensor_type;location;lat;lon;timestamp;temperature;humidity
50548;DHT22;38013;48.810;8.818;2023-04-24T00:01:21;12.80;68.50
50548;DHT22;38013;48.810;8.818;2023-04-24T00:03:48;12.80;68.40
50548;DHT22;38013;48.810;8.818;2023-04-24T00:06:15;12.80;68.40
50548;DHT22;38013;48.810;8.818;2023-04-24T00:08:43;12.80;68.30
50548;DHT22;38013;48.810;8.818;2023-04-24T00:11:10;12.90;68.40
50548;DHT22;38013;48.810;8.818;2023-04-24T00:13:38;12.90;68.30
50548;DHT22;38013;48.810;8.818;2023-04-24T00:16:05;12.90;68.20
50548;DHT22;38013;48.810;8.818;2023-04-24T00:18:32;13.00;68.10
50548;DHT22;38013;48.810;8.818;2023-04-24T00:20:59;13.00;68.10
50548;DHT22;38013;48.810;8.818;2023-04-24T00:23:26;13.00;68.00
50548;DHT22;38013;48.810;8.818;2023-04-24T00:25:53;13.00;68.00
50548;DHT22;38013;48.810;8.818;2023-04-24T00:28:20;13.00;67.90
50548;DHT22;38013;48.810;8.818;2023-04-24T00:30:46;13.10;67.90
50548;DHT22;38013;48.810;8.818;2023-04-24T00:33:13;13.10;67.90
50548;DHT22;38013;48.810;8.818;2023-04-24T00:35:41;13.10;67.80
50548;DHT22;38013;48.810;8.818;2023-04-24T00:38:08;13.10;67.70
50548;DHT22;38013;48.810;8.818;2023-04-24T00:40:34;13.10;67.70
50548;DHT22;38013;48.810;8.818;2023-04-24T00:43:01;13.20;67.70
50548;DHT22;38013;48.810;8.818;2023-04-24T00:45:28;13.20;67.70
50548;DHT22;38013;48.810;8.818;2023-04-24T00:47:58;13.20;67.70
50548;DHT22;38013;48.810;8.818;2023-04-24T00:50:25;13.20;67.60
50548;DHT22;38013;48.810;8.818;2023-04-24T00:52:52;13.20;67.50
50548;DHT22;38013;48.810;8.818;2023-04-24T00:55:20;13.20;67.60
50548;DHT22;38013;48.810;8.818;2023-04-24T00:57:48;13.20;67.50
50548;DHT22;38013;48.810;8.818;2023-04-24T01:00:15;13.20;67.50
50548;DHT22;38013;48.810;8.818;2023-04-24T01:02:43;13.20;67.40
50548;DHT22;38013;48.810;8.818;2023-04-24T01:05:13;13.20;67.50
50548;DHT22;38013;48.810;8.818;2023-04-24T01:07:44;13.20;67.40
50548;DHT22;38013;48.810;8.818;2023-04-24T01:10:14;13.20;67.50
50548;DHT22;38013;48.810;8.818;2023-04-24T01:12:41;13.30;67.40
50548;DHT22;38013;48.810;8.818;2023-04-24T01:15:09;13.30;67.30
50548;DHT22;38013;48.810;8.818;2023-04-24T01:17:36;13.30;67.30
50548;DHT22;38013;48.810;8.818;2023-04-24T01:20:05;13.30;67.30
50548;DHT22;38013;48.810;8.818;2023-04-24T01:22:34;13.20;67.20
50548;DHT22;38013;48.810;8.818;2023-04-24T01:25:02;13.20;67.20
50548;DHT22;38013;48.810;8.818;2023-04-24T01:27:30;13.20;67.20
50548;DHT22;38013;48.810;8.818;2023-04-24T01:29:57;13.20;67.30
50548;DHT22;38013;48.810;8.818;2023-04-24T01:32:25;13.20;67.30
50548;DHT22;38013;48.810;8.818;2023-04-24T01:34:52;13.20;67.40
50548;DHT22;38013;48.810;8.818;2023-04-24T01:37:20;13.20;67.50
50548;DHT22;38013;48.810;8.818;2023-04-24T01:39:46;13.10;67.50
50548;DHT22;38013;48.810;8.818;2023-04-24T01:42:14;13.10;67.60
50548;DHT22;38013;48.810;8.818;2023-04-24T01:44:41;13.10;67.70
50548;DHT22;38013;48.810;8.818;2023-04-24T01:47:09;13.10;67.70
50548;DHT22;38013;48.810;8.818;2023-04-24T01:49:38;13.10;67.80
50548;DHT22;38013;48.810;8.818;2023-04-24T01:52:06;13.10;67.90
50548;DHT22;38013;48.810;8.818;2023-04-24T01:54:34;13.10;67.90
50548;DHT22;38013;48.810;8.818;2023-04-24T01:57:01;13.10;67.90
50548;DHT22;38013;48.810;8.818;2023-04-24T01:59:30;13.10;68.00
50548;DHT22;38013;48.810;8.818;2023-04-24T02:01:59;13.00;68.10
50548;DHT22;38013;48.810;8.818;2023-04-24T02:04:26;13.10;68.10
50548;DHT22;38013;48.810;8.818;2023-04-24T02:06:53;13.10;68.20
50548;DHT22;38013;48.810;8.818;2023-04-24T02:09:20;13.10;68.30
50548;DHT22;38013;48.810;8.818;2023-04-24T02:11:46;13.10;68.40
50548;DHT22;38013;48.810;8.818;2023-04-24T02:14:13;13.10;68.50
50548;DHT22;38013;48.810;8.818;2023-04-24T02:16:40;13.10;68.80
50548;DHT22;38013;48.810;8.818;2023-04-24T02:19:07;13.10;68.90
50548;DHT22;38013;48.810;8.818;2023-04-24T02:21:34;13.10;69.10
50548;DHT22;38013;48.810;8.818;2023-04-24T02:24:01;13.10;69.20
50548;DHT22;38013;48.810;8.818;2023-04-24T02:26:28;13.10;69.30
50548;DHT22;38013;48.810;8.818;2023-04-24T02:28:57;13.10;70.10
50548;DHT22;38013;48.810;8.818;2023-04-24T02:31:24;13.10;69.70
50548;DHT22;38013;48.810;8.818;2023-04-24T02:33:51;13.10;69.90
50548;DHT22;38013;48.810;8.818;2023-04-24T02:36:18;13.00;70.00
50548;DHT22;38013;48.810;8.818;2023-04-24T02:38:48;13.00;69.90
50548;DHT22;38013;48.810;8.818;2023-04-24T02:41:15;13.00;69.90
50548;DHT22;38013;48.810;8.818;2023-04-24T02:43:42;12.90;70.10
50548;DHT22;38013;48.810;8.818;2023-04-24T02:46:08;13.00;70.10
50548;DHT22;38013;48.810;8.818;2023-04-24T02:48:35;12.90;70.30
50548;DHT22;38013;48.810;8.818;2023-04-24T02:51:03;12.90;70.20
50548;DHT22;38013;48.810;8.818;2023-04-24T02:53:30;12.90;70.40
50548;DHT22;38013;48.810;8.818;2023-04-24T02:55:57;12.80;70.40
50548;DHT22;38013;48.810;8.818;2023-04-24T02:58:24;12.80;70.50
50548;DHT22;38013;48.810;8.818;2023-04-24T03:00:55;12.80;70.60
50548;DHT22;38013;48.810;8.818;2023-04-24T03:03:22;12.70;71.10
50548;DHT22;38013;48.810;8.818;2023-04-24T03:05:51;12.60;70.90
50548;DHT22;38013;48.810;8.818;2023-04-24T03:08:17;12.60;71.10
50548;DHT22;38013;48.810;8.818;2023-04-24T03:10:44;12.60;71.20
50548;DHT22;38013;48.810;8.818;2023-04-24T03:13:15;12.50;71.30
50548;DHT22;38013;48.810;8.818;2023-04-24T03:15:43;12.50;71.40
50548;DHT22;38013;48.810;8.818;2023-04-24T03:18:10;12.50;71.30
50548;DHT22;38013;48.810;8.818;2023-04-24T03:20:37;12.50;71.30
50548;DHT22;38013;48.810;8.818;2023-04-24T03:23:04;12.40;71.30
50548;DHT22;38013;48.810;8.818;2023-04-24T03:25:31;12.40;71.40
50548;DHT22;38013;48.810;8.818;2023-04-24T03:27:58;12.40;72.10
50548;DHT22;38013;48.810;8.818;2023-04-24T03:30:41;12.30;71.50
50548;DHT22;38013;48.810;8.818;2023-04-24T03:33:09;12.30;71.50
50548;DHT22;38013;48.810;8.818;2023-04-24T03:35:43;12.30;71.80
50548;DHT22;38013;48.810;8.818;2023-04-24T03:38:12;12.30;72.00
50548;DHT22;38013;48.810;8.818;2023-04-24T03:40:54;12.20;72.10
50548;DHT22;38013;48.810;8.818;2023-04-24T03:43:40;12.20;72.10
50548;DHT22;38013;48.810;8.818;2023-04-24T03:46:07;12.20;72.30
50548;DHT22;38013;48.810;8.818;2023-04-24T03:48:40;12.20;72.30
50548;DHT22;38013;48.810;8.818;2023-04-24T03:51:08;12.20;72.50
50548;DHT22;38013;48.810;8.818;2023-04-24T03:53:38;12.20;72.80
50548;DHT22;38013;48.810;8.818;2023-04-24T03:56:06;12.20;72.90
50548;DHT22;38013;48.810;8.818;2023-04-24T03:58:33;12.20;72.40
50548;DHT22;38013;48.810;8.818;2023-04-24T04:01:00;12.20;72.50
50548;DHT22;38013;48.810;8.818;2023-04-24T04:03:48;12.20;72.50
50548;DHT22;38013;48.810;8.818;2023-04-24T04:06:19;12.10;71.50
50548;DHT22;38013;48.810;8.818;2023-04-24T04:08:46;12.00;71.10
50548;DHT22;38013;48.810;8.818;2023-04-24T04:11:13;11.90;70.90
50548;DHT22;38013;48.810;8.818;2023-04-24T04:13:40;11.80;70.90
50548;DHT22;38013;48.810;8.818;2023-04-24T04:16:08;11.70;71.00
50548;DHT22;38013;48.810;8.818;2023-04-24T04:18:36;11.60;71.20
50548;DHT22;38013;48.810;8.818;2023-04-24T04:21:06;11.50;71.00
50548;DHT22;38013;48.810;8.818;2023-04-24T04:23:33;11.50;71.10
50548;DHT22;38013;48.810;8.818;2023-04-24T04:26:15;11.40;71.40
50548;DHT22;38013;48.810;8.818;2023-04-24T04:29:08;11.30;71.40
50548;DHT22;38013;48.810;8.818;2023-04-24T04:31:39;11.30;71.60
50548;DHT22;38013;48.810;8.818;2023-04-24T04:34:10;11.30;71.80
50548;DHT22;38013;48.810;8.818;2023-04-24T04:36:40;11.20;71.90
50548;DHT22;38013;48.810;8.818;2023-04-24T04:39:22;11.20;72.50
50548;DHT22;38013;48.810;8.818;2023-04-24T04:42:01;11.20;72.00
50548;DHT22;38013;48.810;8.818;2023-04-24T04:44:35;11.10;72.10
50548;DHT22;38013;48.810;8.818;2023-04-24T04:47:04;11.00;72.10
50548;DHT22;38013;48.810;8.818;2023-04-24T04:49:40;11.00;72.20
50548;DHT22;38013;48.810;8.818;2023-04-24T04:52:15;10.90;72.10
50548;DHT22;38013;48.810;8.818;2023-04-24T04:54:46;10.90;72.30
50548;DHT22;38013;48.810;8.818;2023-04-24T04:57:12;10.80;72.50
50548;DHT22;38013;48.810;8.818;2023-04-24T04:59:40;10.80;72.50
50548;DHT22;38013;48.810;8.818;2023-04-24T05:02:13;10.80;72.80
50548;DHT22;38013;48.810;8.818;2023-04-24T05:04:40;10.70;72.70
50548;DHT22;38013;48.810;8.818;2023-04-24T05:07:07;10.70;72.80
50548;DHT22;38013;48.810;8.818;2023-04-24T05:09:38;10.70;72.90
50548;DHT22;38013;48.810;8.818;2023-04-24T05:12:05;10.70;72.90
50548;DHT22;38013;48.810;8.818;2023-04-24T05:14:40;10.70;73.20
50548;DHT22;38013;48.810;8.818;2023-04-24T05:17:08;10.70;73.20
50548;DHT22;38013;48.810;8.818;2023-04-24T05:19:35;10.70;73.30
50548;DHT22;38013;48.810;8.818;2023-04-24T05:22:05;10.70;73.40
50548;DHT22;38013;48.810;8.818;2023-04-24T05:24:38;10.80;73.90
50548;DHT22;38013;48.810;8.818;2023-04-24T05:27:33;10.80;72.90
50548;DHT22;38013;48.810;8.818;2023-04-24T05:30:03;10.80;73.00
50548;DHT22;38013;48.810;8.818;2023-04-24T05:32:31;10.80;73.00
50548;DHT22;38013;48.810;8.818;2023-04-24T05:34:58;10.90;73.10
50548;DHT22;38013;48.810;8.818;2023-04-24T05:37:25;11.00;73.10
50548;DHT22;38013;48.810;8.818;2023-04-24T05:39:52;11.00;73.10
50548;DHT22;38013;48.810;8.818;2023-04-24T05:42:19;11.00;72.90
50548;DHT22;38013;48.810;8.818;2023-04-24T05:44:46;11.00;72.60
50548;DHT22;38013;48.810;8.818;2023-04-24T05:47:13;11.10;72.60
50548;DHT22;38013;48.810;8.818;2023-04-24T05:49:40;11.10;72.50
50548;DHT22;38013;48.810;8.818;2023-04-24T05:52:08;11.10;72.20
50548;DHT22;38013;48.810;8.818;2023-04-24T05:54:36;11.20;72.20
50548;DHT22;38013;48.810;8.818;2023-04-24T05:57:03;11.20;72.30
50548;DHT22;38013;48.810;8.818;2023-04-24T05:59:47;11.20;72.30
50548;DHT22;38013;48.810;8.818;2023-04-24T06:02:16;11.30;72.20
50548;DHT22;38013;48.810;8.818;2023-04-24T06:04:44;11.30;72.20
50548;DHT22;38013;48.810;8.818;2023-04-24T06:07:11;11.40;72.00
50548;DHT22;38013;48.810;8.818;2023-04-24T06:09:41;11.40;71.70
50548;DHT22;38013;48.810;8.818;2023-04-24T06:12:09;11.50;71.50
50548;DHT22;38013;48.810;8.818;2023-04-24T06:14:50;11.60;71.40
50548;DHT22;38013;48.810;8.818;2023-04-24T06:17:21;11.60;71.40
50548;DHT22;38013;48.810;8.818;2023-04-24T06:19:49;11.70;71.30
50548;DHT22;38013;48.810;8.818;2023-04-24T06:22:17;11.70;71.10
50548;DHT22;38013;48.810;8.818;2023-04-24T06:24:47;11.80;71.00
50548;DHT22;38013;48.810;8.818;2023-04-24T06:27:15;11.80;70.90
50548;DHT22;38013;48.810;8.818;2023-04-24T06:29:41;11.90;70.70
50548;DHT22;38013;48.810;8.818;2023-04-24T06:32:09;11.90;69.90
50548;DHT22;38013;48.810;8.818;2023-04-24T06:34:36;12.00;69.90
50548;DHT22;38013;48.810;8.818;2023-04-24T06:37:03;12.00;69.80
50548;DHT22;38013;48.810;8.818;2023-04-24T06:39:30;12.00;69.80
50548;DHT22;38013;48.810;8.818;2023-04-24T06:41:57;12.10;69.40
50548;DHT22;38013;48.810;8.818;2023-04-24T06:44:24;12.10;69.40
50548;DHT22;38013;48.810;8.818;2023-04-24T06:46:51;12.10;69.20
50548;DHT22;38013;48.810;8.818;2023-04-24T06:49:18;12.20;68.90
50548;DHT22;38013;48.810;8.818;2023-04-24T06:51:45;12.20;68.50
50548;DHT22;38013;48.810;8.818;2023-04-24T06:54:12;12.30;69.10
50548;DHT22;38013;48.810;8.818;2023-04-24T06:56:39;12.20;67.90
50548;DHT22;38013;48.810;8.818;2023-04-24T06:59:06;12.30;67.70
50548;DHT22;38013;48.810;8.818;2023-04-24T07:01:33;12.30;67.80
50548;DHT22;38013;48.810;8.818;2023-04-24T07:04:00;12.20;67.60
50548;DHT22;38013;48.810;8.818;2023-04-24T07:06:27;12.20;67.50
50548;DHT22;38013;48.810;8.818;2023-04-24T07:08:54;12.20;67.40
50548;DHT22;38013;48.810;8.818;2023-04-24T07:11:22;12.20;67.60
50548;DHT22;38013;48.810;8.818;2023-04-24T07:13:49;12.20;67.40
50548;DHT22;38013;48.810;8.818;2023-04-24T07:16:16;12.20;67.30
50548;DHT22;38013;48.810;8.818;2023-04-24T07:18:42;12.20;67.20
50548;DHT22;38013;48.810;8.818;2023-04-24T07:21:09;12.20;67.10
50548;DHT22;38013;48.810;8.818;2023-04-24T07:23:37;12.20;67.10
50548;DHT22;38013;48.810;8.818;2023-04-24T07:26:04;12.20;66.90
50548;DHT22;38013;48.810;8.818;2023-04-24T07:28:31;12.30;66.60
50548;DHT22;38013;48.810;8.818;2023-04-24T07:30:58;12.30;66.50
50548;DHT22;38013;48.810;8.818;2023-04-24T07:33:26;12.30;66.90
50548;DHT22;38013;48.810;8.818;2023-04-24T07:35:53;12.30;65.90
50548;DHT22;38013;48.810;8.818;2023-04-24T07:38:21;12.30;65.50
50548;DHT22;38013;48.810;8.818;2023-04-24T07:40:48;12.30;65.40
50548;DHT22;38013;48.810;8.818;2023-04-24T07:43:15;12.30;64.90
50548;DHT22;38013;48.810;8.818;2023-04-24T07:45:42;12.30;64.80
50548;DHT22;38013;48.810;8.818;2023-04-24T07:48:10;12.30;64.90
50548;DHT22;38013;48.810;8.818;2023-04-24T07:50:37;12.40;65.30
50548;DHT22;38013;48.810;8.818;2023-04-24T07:53:04;12.40;65.30
50548;DHT22;38013;48.810;8.818;2023-04-24T07:55:30;12.50;65.30
50548;DHT22;38013;48.810;8.818;2023-04-24T07:57:58;12.50;64.60
50548;DHT22;38013;48.810;8.818;2023-04-24T08:00:25;12.50;64.10
50548;DHT22;38013;48.810;8.818;2023-04-24T08:02:53;12.50;63.40
50548;DHT22;38013;48.810;8.818;2023-04-24T08:05:20;12.50;63.70
50548;DHT22;38013;48.810;8.818;2023-04-24T08:07:47;12.50;63.80
50548;DHT22;38013;48.810;8.818;2023-04-24T08:10:16;12.40;63.40
50548;DHT22;38013;48.810;8.818;2023-04-24T08:12:43;12.50;63.10
50548;DHT22;38013;48.810;8.818;2023-04-24T08:15:10;12.40;62.80
50548;DHT22;38013;48.810;8.818;2023-04-24T08:17:37;12.40;62.70
50548;DHT22;38013;48.810;8.818;2023-04-24T08:20:05;12.40;62.70
50548;DHT22;38013;48.810;8.818;2023-04-24T08:22:36;12.30;62.40
50548;DHT22;38013;48.810;8.818;2023-04-24T08:25:03;12.30;62.10
50548;DHT22;38013;48.810;8.818;2023-04-24T08:27:31;12.20;61.90
50548;DHT22;38013;48.810;8.818;2023-04-24T08:29:57;12.20;61.80
50548;DHT22;38013;48.810;8.818;2023-04-24T08:32:27;12.10;61.80
50548;DHT22;38013;48.810;8.818;2023-04-24T08:34:56;12.10;61.70
50548;DHT22;38013;48.810;8.818;2023-04-24T08:37:23;12.10;62.40
50548;DHT22;38013;48.810;8.818;2023-04-24T08:39:50;12.10;62.30
50548;DHT22;38013;48.810;8.818;2023-04-24T08:42:18;12.00;62.70
50548;DHT22;38013;48.810;8.818;2023-04-24T08:44:46;12.00;62.60
50548;DHT22;38013;48.810;8.818;2023-04-24T08:47:13;12.00;62.40
50548;DHT22;38013;48.810;8.818;2023-04-24T08:49:42;12.00;62.40
50548;DHT22;38013;48.810;8.818;2023-04-24T08:52:10;12.00;62.20
50548;DHT22;38013;48.810;8.818;2023-04-24T08:54:39;12.00;61.70
50548;DHT22;38013;48.810;8.818;2023-04-24T08:57:08;12.00;61.30
50548;DHT22;38013;48.810;8.818;2023-04-24T08:59:38;11.90;60.90
50548;DHT22;38013;48.810;8.818;2023-04-24T09:02:05;11.90;61.00
50548;DHT22;38013;48.810;8.818;2023-04-24T09:04:33;11.80;61.10
50548;DHT22;38013;48.810;8.818;2023-04-24T09:07:00;11.80;61.50
50548;DHT22;38013;48.810;8.818;2023-04-24T09:09:30;11.70;61.90
50548;DHT22;38013;48.810;8.818;2023-04-24T09:12:00;11.80;62.50
50548;DHT22;38013;48.810;8.818;2023-04-24T09:14:27;11.70;63.10
50548;DHT22;38013;48.810;8.818;2023-04-24T09:16:55;11.80;64.10
50548;DHT22;38013;48.810;8.818;2023-04-24T09:19:22;11.90;63.40
50548;DHT22;38013;48.810;8.818;2023-04-24T09:21:49;12.00;63.70
50548;DHT22;38013;48.810;8.818;2023-04-24T09:24:18;12.10;63.40
50548;DHT22;38013;48.810;8.818;2023-04-24T09:26:55;12.10;63.40
50548;DHT22;38013;48.810;8.818;2023-04-24T09:29:28;12.20;63.60
50548;DHT22;38013;48.810;8.818;2023-04-24T09:31:55;12.30;63.10
50548;DHT22;38013;48.810;8.818;2023-04-24T09:34:23;12.30;62.70
50548;DHT22;38013;48.810;8.818;2023-04-24T09:36:52;12.30;62.60
50548;DHT22;38013;48.810;8.818;2023-04-24T09:39:19;12.30;62.10
50548;DHT22;38013;48.810;8.818;2023-04-24T09:41:55;12.20;62.20
50548;DHT22;38013;48.810;8.818;2023-04-24T09:44:28;12.20;62.50
50548;DHT22;38013;48.810;8.818;2023-04-24T09:46:58;12.10;62.60
50548;DHT22;38013;48.810;8.818;2023-04-24T09:49:28;12.10;62.80
50548;DHT22;38013;48.810;8.818;2023-04-24T09:52:06;12.10;63.10
50548;DHT22;38013;48.810;8.818;2023-04-24T09:54:38;12.10;62.30
50548;DHT22;38013;48.810;8.818;2023-04-24T09:57:09;12.20;62.50
50548;DHT22;38013;48.810;8.818;2023-04-24T09:59:42;12.20;62.20
50548;DHT22;38013;48.810;8.818;2023-04-24T10:02:20;12.30;61.80
50548;DHT22;38013;48.810;8.818;2023-04-24T10:04:55;12.40;61.80
50548;DHT22;38013;48.810;8.818;2023-04-24T10:07:25;12.40;61.60
50548;DHT22;38013;48.810;8.818;2023-04-24T10:09:53;12.50;61.20
50548;DHT22;38013;48.810;8.818;2023-04-24T10:12:21;12.60;60.60
50548;DHT22;38013;48.810;8.818;2023-04-24T10:14:48;12.60;59.70
50548;DHT22;38013;48.810;8.818;2023-04-24T10:17:16;12.70;59.50
50548;DHT22;38013;48.810;8.818;2023-04-24T10:19:43;12.60;59.80
50548;DHT22;38013;48.810;8.818;2023-04-24T10:22:12;12.60;59.10
50548;DHT22;38013;48.810;8.818;2023-04-24T10:24:39;12.60;58.90
50548;DHT22;38013;48.810;8.818;2023-04-24T10:27:08;12.60;59.10
50548;DHT22;38013;48.810;8.818;2023-04-24T10:29:36;12.60;58.90
50548;DHT22;38013;48.810;8.818;2023-04-24T10:32:07;12.60;58.90
50548;DHT22;38013;48.810;8.818;2023-04-24T10:34:33;12.60;58.50
50548;DHT22;38013;48.810;8.818;2023-04-24T10:37:02;12.60;58.80
50548;DHT22;38013;48.810;8.818;2023-04-24T10:39:29;12.50;58.60
50548;DHT22;38013;48.810;8.818;2023-04-24T10:41:57;12.50;58.60
50548;DHT22;38013;48.810;8.818;2023-04-24T10:44:24;12.40;58.80
50548;DHT22;38013;48.810;8.818;2023-04-24T10:46:55;12.40;58.50
50548;DHT22;38013;48.810;8.818;2023-04-24T10:49:29;12.30;58.90
50548;DHT22;38013;48.810;8.818;2023-04-24T10:52:02;12.20;58.70
50548;DHT22;38013;48.810;8.818;2023-04-24T10:54:41;12.10;58.70
50548;DHT22;38013;48.810;8.818;2023-04-24T10:59:46;12.10;59.80
50548;DHT22;38013;48.810;8.818;2023-04-24T11:02:14;12.10;60.40
50548;DHT22;38013;48.810;8.818;2023-04-24T11:04:42;12.10;60.60
50548;DHT22;38013;48.810;8.818;2023-04-24T11:07:10;12.30;60.80
50548;DHT22;38013;48.810;8.818;2023-04-24T11:09:38;12.40;61.00
50548;DHT22;38013;48.810;8.818;2023-04-24T11:12:10;12.50;61.10
50548;DHT22;38013;48.810;8.818;2023-04-24T11:17:35;12.80;58.60
50548;DHT22;38013;48.810;8.818;2023-04-24T11:20:09;12.90;58.20
50548;DHT22;38013;48.810;8.818;2023-04-24T11:22:54;12.90;58.90
50548;DHT22;38013;48.810;8.818;2023-04-24T11:25:22;12.90;58.90
50548;DHT22;38013;48.810;8.818;2023-04-24T11:27:50;13.00;59.30
50548;DHT22;38013;48.810;8.818;2023-04-24T11:30:20;13.00;59.40
50548;DHT22;38013;48.810;8.818;2023-04-24T11:32:48;13.10;59.60
50548;DHT22;38013;48.810;8.818;2023-04-24T11:35:19;13.10;60.10
50548;DHT22;38013;48.810;8.818;2023-04-24T11:37:55;13.30;60.20
50548;DHT22;38013;48.810;8.818;2023-04-24T11:40:25;13.50;59.40
50548;DHT22;38013;48.810;8.818;2023-04-24T11:42:53;13.60;58.00
50548;DHT22;38013;48.810;8.818;2023-04-24T11:45:24;13.70;57.80
50548;DHT22;38013;48.810;8.818;2023-04-24T11:47:53;13.80;57.30
50548;DHT22;38013;48.810;8.818;2023-04-24T11:50:24;13.80;57.50
50548;DHT22;38013;48.810;8.818;2023-04-24T11:52:53;13.80;57.20
50548;DHT22;38013;48.810;8.818;2023-04-24T11:57:55;13.70;56.80
50548;DHT22;38013;48.810;8.818;2023-04-24T12:00:26;13.70;56.60
50548;DHT22;38013;48.810;8.818;2023-04-24T12:03:24;13.70;56.50
50548;DHT22;38013;48.810;8.818;2023-04-24T12:05:51;13.70;55.80
50548;DHT22;38013;48.810;8.818;2023-04-24T12:08:28;13.70;56.60
50548;DHT22;38013;48.810;8.818;2023-04-24T12:10:55;13.70;56.50
50548;DHT22;38013;48.810;8.818;2023-04-24T12:13:22;13.70;56.80
50548;DHT22;38013;48.810;8.818;2023-04-24T12:15:52;13.70;56.30
50548;DHT22;38013;48.810;8.818;2023-04-24T12:18:22;13.80;56.50
50548;DHT22;38013;48.810;8.818;2023-04-24T12:20:50;13.80;56.10
50548;DHT22;38013;48.810;8.818;2023-04-24T12:23:27;13.70;56.50
50548;DHT22;38013;48.810;8.818;2023-04-24T12:26:00;13.70;56.10
50548;DHT22;38013;48.810;8.818;2023-04-24T12:28:37;13.70;56.40
50548;DHT22;38013;48.810;8.818;2023-04-24T12:31:06;13.60;57.90
50548;DHT22;38013;48.810;8.818;2023-04-24T12:33:35;13.50;58.70
50548;DHT22;38013;48.810;8.818;2023-04-24T12:36:02;13.40;59.10
50548;DHT22;38013;48.810;8.818;2023-04-24T12:38:29;13.20;59.40
50548;DHT22;38013;48.810;8.818;2023-04-24T12:41:03;13.10;59.60
50548;DHT22;38013;48.810;8.818;2023-04-24T12:43:32;13.00;60.90
50548;DHT22;38013;48.810;8.818;2023-04-24T12:45:59;12.90;60.90
50548;DHT22;38013;48.810;8.818;2023-04-24T12:48:27;12.90;61.00
50548;DHT22;38013;48.810;8.818;2023-04-24T12:50:54;13.00;61.10
50548;DHT22;38013;48.810;8.818;2023-04-24T12:53:23;13.00;61.50
50548;DHT22;38013;48.810;8.818;2023-04-24T12:55:49;13.10;62.00
50548;DHT22;38013;48.810;8.818;2023-04-24T12:58:20;13.30;61.60
50548;DHT22;38013;48.810;8.818;2023-04-24T13:00:47;13.50;61.70
50548;DHT22;38013;48.810;8.818;2023-04-24T13:03:15;13.70;61.50
50548;DHT22;38013;48.810;8.818;2023-04-24T13:05:43;13.80;60.90
50548;DHT22;38013;48.810;8.818;2023-04-24T13:08:10;14.00;60.80
50548;DHT22;38013;48.810;8.818;2023-04-24T13:10:39;14.20;60.30
50548;DHT22;38013;48.810;8.818;2023-04-24T13:13:06;14.30;60.10
50548;DHT22;38013;48.810;8.818;2023-04-24T13:15:34;14.30;58.10
50548;DHT22;38013;48.810;8.818;2023-04-24T13:18:01;14.30;57.80
50548;DHT22;38013;48.810;8.818;2023-04-24T13:20:28;14.20;58.10
50548;DHT22;38013;48.810;8.818;2023-04-24T13:22:55;14.10;58.10
50548;DHT22;38013;48.810;8.818;2023-04-24T13:25:22;14.00;58.10
50548;DHT22;38013;48.810;8.818;2023-04-24T13:27:49;13.90;58.10
50548;DHT22;38013;48.810;8.818;2023-04-24T13:30:17;13.80;58.80
50548;DHT22;38013;48.810;8.818;2023-04-24T13:32:44;13.80;59.90
50548;DHT22;38013;48.810;8.818;2023-04-24T13:35:11;13.80;60.40
50548;DHT22;38013;48.810;8.818;2023-04-24T13:37:38;13.90;60.70
50548;DHT22;38013;48.810;8.818;2023-04-24T13:40:05;14.00;60.10
50548;DHT22;38013;48.810;8.818;2023-04-24T13:42:33;14.20;59.80
50548;DHT22;38013;48.810;8.818;2023-04-24T13:45:00;14.30;59.60
50548;DHT22;38013;48.810;8.818;2023-04-24T13:47:36;14.40;60.20
50548;DHT22;38013;48.810;8.818;2023-04-24T13:50:03;14.60;60.40
50548;DHT22;38013;48.810;8.818;2023-04-24T13:52:31;14.70;59.80
50548;DHT22;38013;48.810;8.818;2023-04-24T13:54:58;14.90;59.20
50548;DHT22;38013;48.810;8.818;2023-04-24T13:57:24;15.00;58.50
50548;DHT22;38013;48.810;8.818;2023-04-24T13:59:51;15.20;58.30
50548;DHT22;38013;48.810;8.818;2023-04-24T14:02:18;15.30;57.50
50548;DHT22;38013;48.810;8.818;2023-04-24T14:04:45;15.40;56.70
50548;DHT22;38013;48.810;8.818;2023-04-24T14:07:14;15.40;56.10
50548;DHT22;38013;48.810;8.818;2023-04-24T14:09:41;15.30;55.60
50548;DHT22;38013;48.810;8.818;2023-04-24T14:12:08;15.30;55.50
50548;DHT22;38013;48.810;8.818;2023-04-24T14:14:35;15.10;55.30
50548;DHT22;38013;48.810;8.818;2023-04-24T14:17:02;15.00;55.00
50548;DHT22;38013;48.810;8.818;2023-04-24T14:19:29;14.80;55.00
50548;DHT22;38013;48.810;8.818;2023-04-24T14:21:56;14.60;55.40
50548;DHT22;38013;48.810;8.818;2023-04-24T14:24:24;14.50;55.70
50548;DHT22;38013;48.810;8.818;2023-04-24T14:26:51;14.30;56.80
50548;DHT22;38013;48.810;8.818;2023-04-24T14:29:18;14.20;57.10
50548;DHT22;38013;48.810;8.818;2023-04-24T14:31:46;14.20;57.40
50548;DHT22;38013;48.810;8.818;2023-04-24T14:34:13;14.10;57.80
50548;DHT22;38013;48.810;8.818;2023-04-24T14:36:41;14.10;58.00
50548;DHT22;38013;48.810;8.818;2023-04-24T14:39:08;14.20;58.50
50548;DHT22;38013;48.810;8.818;2023-04-24T14:41:36;14.30;59.20
50548;DHT22;38013;48.810;8.818;2023-04-24T14:44:04;14.40;59.20
50548;DHT22;38013;48.810;8.818;2023-04-24T14:46:31;14.60;58.10
50548;DHT22;38013;48.810;8.818;2023-04-24T14:48:58;14.80;57.10
50548;DHT22;38013;48.810;8.818;2023-04-24T14:51:25;14.80;55.90
50548;DHT22;38013;48.810;8.818;2023-04-24T14:53:52;14.80;55.60
50548;DHT22;38013;48.810;8.818;2023-04-24T14:56:19;14.70;55.40
50548;DHT22;38013;48.810;8.818;2023-04-24T14:58:46;14.60;55.80
50548;DHT22;38013;48.810;8.818;2023-04-24T15:01:13;14.40;56.60
50548;DHT22;38013;48.810;8.818;2023-04-24T15:03:41;14.20;57.40
50548;DHT22;38013;48.810;8.818;2023-04-24T15:06:09;14.00;58.10
50548;DHT22;38013;48.810;8.818;2023-04-24T15:08:36;13.80;59.10
50548;DHT22;38013;48.810;8.818;2023-04-24T15:11:02;13.60;59.30
50548;DHT22;38013;48.810;8.818;2023-04-24T15:13:30;13.60;59.80
50548;DHT22;38013;48.810;8.818;2023-04-24T15:15:56;13.50;60.20
50548;DHT22;38013;48.810;8.818;2023-04-24T15:18:23;13.50;60.30
50548;DHT22;38013;48.810;8.818;2023-04-24T15:20:50;13.60;60.80
50548;DHT22;38013;48.810;8.818;2023-04-24T15:23:17;13.60;60.50
50548;DHT22;38013;48.810;8.818;2023-04-24T15:25:44;13.60;60.50
50548;DHT22;38013;48.810;8.818;2023-04-24T15:28:11;13.70;60.90
50548;DHT22;38013;48.810;8.818;2023-04-24T15:30:38;13.80;60.90
50548;DHT22;38013;48.810;8.818;2023-04-24T15:33:05;14.00;61.80
50548;DHT22;38013;48.810;8.818;2023-04-24T15:35:33;14.30;62.50
50548;DHT22;38013;48.810;8.818;2023-04-24T15:38:01;14.70;62.60
50548;DHT22;38013;48.810;8.818;2023-04-24T15:40:28;15.10;61.70
50548;DHT22;38013;48.810;8.818;2023-04-24T15:42:55;15.60;61.40
50548;DHT22;38013;48.810;8.818;2023-04-24T15:45:22;16.00;60.20
50548;DHT22;38013;48.810;8.818;2023-04-24T15:47:49;16.50;59.50